Time;durP1;ratioP1;P1;durP2;ratioP2;P2;SDS_P1;SDS_P2;PMS_P1;PMS_P2;Temp;Humidity;BMP_temperature;BMP_pressure;BME280_temperature;BME280_humidity;BME280_pressure;Samples;Min_cycle;Max_cycle;Signal;HPM_P1;HPM_P2
2023/05/07 00:00:55;;;;;;;;;;;16.80;79.90;;;;;;5071794;28;19912;-35
2023/05/07 00:03:21;;;;;;;;;;;16.70;79.90;;;;;;5071497;28;19912;-35
2023/05/07 00:05:46;;;;;;;;;;;16.70;79.90;;;;;;5071608;28;20442;-36
2023/05/07 00:08:12;;;;;;;;;;;16.70;80.00;;;;;;5070370;28;20011;-33
2023/05/07 00:10:37;;;;;;;;;;;16.70;80.00;;;;;;5071544;28;19912;-36
2023/05/07 00:13:03;;;;;;;;;;;16.70;80.00;;;;;;5071476;28;19920;-35
2023/05/07 00:15:28;;;;;;;;;;;16.70;79.90;;;;;;5071427;28;19913;-35
2023/05/07 00:17:55;;;;;;;;;;;16.70;79.90;;;;;;5071468;28;20364;-36
2023/05/07 00:20:20;;;;;;;;;;;16.70;80.00;;;;;;5071565;28;20036;-35
2023/05/07 00:22:46;;;;;;;;;;;16.60;80.00;;;;;;5074157;28;19913;-36
2023/05/07 00:25:12;;;;;;;;;;;16.60;80.10;;;;;;5075447;28;20017;-35
2023/05/07 00:27:37;;;;;;;;;;;16.60;80.10;;;;;;5075510;28;19923;-34
2023/05/07 00:30:03;;;;;;;;;;;16.60;80.20;;;;;;5075720;28;20393;-35
2023/05/07 00:32:28;;;;;;;;;;;16.50;80.20;;;;;;5075134;28;19913;-35
2023/05/07 00:34:55;;;;;;;;;;;16.50;80.20;;;;;;5075144;28;20296;-36
2023/05/07 00:37:20;;;;;;;;;;;16.40;80.20;;;;;;5075403;28;19912;-33
2023/05/07 00:39:46;;;;;;;;;;;16.40;80.30;;;;;;5074987;28;19912;-35
2023/05/07 00:42:11;;;;;;;;;;;16.40;80.30;;;;;;5075252;28;19920;-34
2023/05/07 00:44:37;;;;;;;;;;;16.40;80.40;;;;;;5075166;28;20401;-36
2023/05/07 00:47:03;;;;;;;;;;;16.40;80.40;;;;;;5075355;28;19916;-35
2023/05/07 00:49:46;;;;;;;;;;;16.40;80.40;;;;;;5075029;28;20318;-35
2023/05/07 00:52:13;;;;;;;;;;;16.40;80.40;;;;;;5075155;28;20354;-35
2023/05/07 00:54:40;;;;;;;;;;;16.30;80.40;;;;;;5075124;28;19948;-34
2023/05/07 00:57:06;;;;;;;;;;;16.30;80.40;;;;;;5074629;28;19920;-41
2023/05/07 00:59:32;;;;;;;;;;;16.30;80.50;;;;;;5074524;28;19920;-36
2023/05/07 01:01:58;;;;;;;;;;;16.30;80.50;;;;;;5074766;28;19920;-34
2023/05/07 01:04:23;;;;;;;;;;;16.20;80.60;;;;;;5074824;28;19916;-34
2023/05/07 01:06:49;;;;;;;;;;;16.20;80.70;;;;;;5074784;28;19912;-36
2023/05/07 01:09:15;;;;;;;;;;;16.20;80.80;;;;;;5073621;28;20017;-42
2023/05/07 01:11:41;;;;;;;;;;;16.10;80.90;;;;;;5074474;28;19917;-35
2023/05/07 01:14:07;;;;;;;;;;;16.10;80.90;;;;;;5074514;28;20449;-36
2023/05/07 01:16:32;;;;;;;;;;;16.10;81.00;;;;;;5074478;28;20307;-35
2023/05/07 01:18:58;;;;;;;;;;;16.00;81.00;;;;;;5074897;28;19912;-35
2023/05/07 01:21:26;;;;;;;;;;;16.00;81.10;;;;;;5074135;28;20427;-35
2023/05/07 01:23:52;;;;;;;;;;;16.00;81.10;;;;;;5074167;28;20380;-35
2023/05/07 01:26:19;;;;;;;;;;;15.90;81.10;;;;;;5074352;28;19916;-37
2023/05/07 01:28:45;;;;;;;;;;;15.90;81.20;;;;;;5074292;28;19935;-36
2023/05/07 01:31:12;;;;;;;;;;;15.90;81.20;;;;;;5074138;28;19995;-35
2023/05/07 01:33:37;;;;;;;;;;;15.90;81.30;;;;;;5073835;28;20036;-36
2023/05/07 01:36:06;;;;;;;;;;;15.90;81.30;;;;;;5074378;28;19916;-36
2023/05/07 01:38:32;;;;;;;;;;;15.90;81.20;;;;;;5074109;28;19940;-33
2023/05/07 01:40:57;;;;;;;;;;;16.00;81.20;;;;;;5072526;28;19955;-36
2023/05/07 01:43:23;;;;;;;;;;;16.00;81.20;;;;;;5074349;28;19952;-36
2023/05/07 01:45:49;;;;;;;;;;;16.00;81.20;;;;;;5073992;28;19912;-33
2023/05/07 01:48:15;;;;;;;;;;;16.00;81.20;;;;;;5072624;28;20413;-36
2023/05/07 01:50:41;;;;;;;;;;;16.00;81.20;;;;;;5074018;28;19912;-35
2023/05/07 01:53:07;;;;;;;;;;;16.00;81.20;;;;;;5073939;28;19916;-36
2023/05/07 01:55:32;;;;;;;;;;;16.00;81.20;;;;;;5073868;28;19923;-35
2023/05/07 01:57:58;;;;;;;;;;;15.90;81.20;;;;;;5073946;28;19913;-36
2023/05/07 02:00:23;;;;;;;;;;;15.90;81.30;;;;;;5073826;28;19962;-37
2023/05/07 02:02:49;;;;;;;;;;;15.90;81.30;;;;;;5073801;28;19942;-36
2023/05/07 02:05:14;;;;;;;;;;;16.00;81.30;;;;;;5073658;28;19912;-36
2023/05/07 02:07:39;;;;;;;;;;;16.00;81.30;;;;;;5073531;28;19919;-36
2023/05/07 02:10:06;;;;;;;;;;;16.00;81.30;;;;;;5073530;28;19999;-36
2023/05/07 02:12:31;;;;;;;;;;;16.00;81.30;;;;;;5073562;28;19912;-36
2023/05/07 02:14:56;;;;;;;;;;;16.00;81.20;;;;;;5073431;28;20028;-36
2023/05/07 02:17:22;;;;;;;;;;;16.10;81.30;;;;;;5073624;28;20260;-35
2023/05/07 02:19:47;;;;;;;;;;;16.10;81.20;;;;;;5073382;28;20022;-36
2023/05/07 02:22:13;;;;;;;;;;;16.10;81.20;;;;;;5073182;28;19916;-36
2023/05/07 02:24:38;;;;;;;;;;;16.10;81.20;;;;;;5073138;28;19967;-36
2023/05/07 02:27:04;;;;;;;;;;;16.10;81.20;;;;;;5073033;28;19916;-42
2023/05/07 02:29:29;;;;;;;;;;;16.10;81.20;;;;;;5073044;28;19913;-37
2023/05/07 02:31:55;;;;;;;;;;;16.10;81.20;;;;;;5073131;28;20442;-35
2023/05/07 02:34:21;;;;;;;;;;;16.10;81.20;;;;;;5072946;28;20037;-34
2023/05/07 02:36:46;;;;;;;;;;;16.10;81.30;;;;;;5073278;28;19919;-36
2023/05/07 02:39:12;;;;;;;;;;;16.00;81.30;;;;;;5073071;28;19921;-35
2023/05/07 02:41:38;;;;;;;;;;;16.00;81.30;;;;;;5071638;28;19920;-36
2023/05/07 02:44:04;;;;;;;;;;;16.00;81.30;;;;;;5072361;28;20330;-35
2023/05/07 02:46:29;;;;;;;;;;;15.90;81.30;;;;;;5073014;28;19973;-35
2023/05/07 02:48:55;;;;;;;;;;;16.00;81.40;;;;;;5073043;28;20054;-36
2023/05/07 02:51:21;;;;;;;;;;;15.90;81.30;;;;;;5072900;28;20003;-35
2023/05/07 02:53:47;;;;;;;;;;;16.00;81.40;;;;;;5072470;28;19916;-36
2023/05/07 02:56:12;;;;;;;;;;;16.00;81.50;;;;;;5072549;28;20388;-35
2023/05/07 02:58:42;;;;;;;;;;;16.00;81.40;;;;;;5072489;28;19913;-36
2023/05/07 03:01:07;;;;;;;;;;;16.00;81.40;;;;;;5072569;28;19962;-36
2023/05/07 03:03:33;;;;;;;;;;;16.00;81.30;;;;;;5072342;28;19916;-35
2023/05/07 03:05:58;;;;;;;;;;;16.00;81.30;;;;;;5072486;28;19912;-48
2023/05/07 03:08:24;;;;;;;;;;;16.00;81.30;;;;;;5072423;28;20555;-36
2023/05/07 03:10:49;;;;;;;;;;;16.00;81.20;;;;;;5072390;28;19998;-35
2023/05/07 03:13:15;;;;;;;;;;;16.00;81.20;;;;;;5072180;28;19916;-37
2023/05/07 03:15:40;;;;;;;;;;;16.00;81.20;;;;;;5072106;28;20379;-35
2023/05/07 03:18:06;;;;;;;;;;;16.00;81.20;;;;;;5072157;28;19913;-36
2023/05/07 03:20:31;;;;;;;;;;;16.00;81.20;;;;;;5072129;28;20352;-35
2023/05/07 03:22:57;;;;;;;;;;;16.00;81.20;;;;;;5072243;28;19912;-36
2023/05/07 03:25:22;;;;;;;;;;;16.00;81.20;;;;;;5072099;28;19935;-37
2023/05/07 03:27:48;;;;;;;;;;;16.00;81.20;;;;;;5072219;28;20270;-37
2023/05/07 03:30:13;;;;;;;;;;;16.00;81.20;;;;;;5072056;28;20403;-37
2023/05/07 03:32:39;;;;;;;;;;;16.00;81.20;;;;;;5072132;28;19912;-35
2023/05/07 03:35:05;;;;;;;;;;;15.90;81.10;;;;;;5070822;28;20033;-35
2023/05/07 03:37:30;;;;;;;;;;;16.00;81.10;;;;;;5071826;28;19961;-36
2023/05/07 03:39:56;;;;;;;;;;;16.00;81.20;;;;;;5071770;28;19912;-37
2023/05/07 03:42:21;;;;;;;;;;;15.90;81.10;;;;;;5071953;28;19944;-41
2023/05/07 03:44:47;;;;;;;;;;;15.90;81.20;;;;;;5071649;28;19931;-36
2023/05/07 03:47:13;;;;;;;;;;;15.90;81.20;;;;;;5071733;28;19974;-36
2023/05/07 03:49:39;;;;;;;;;;;15.90;81.20;;;;;;5071767;28;20291;-37
2023/05/07 03:52:05;;;;;;;;;;;15.90;81.20;;;;;;5071958;28;19919;-35
2023/05/07 03:54:30;;;;;;;;;;;15.90;81.30;;;;;;5071751;28;19920;-35
2023/05/07 03:56:56;;;;;;;;;;;15.80;81.20;;;;;;5072126;28;20340;-38
2023/05/07 03:59:22;;;;;;;;;;;15.80;81.30;;;;;;5071783;28;19919;-37
2023/05/07 04:01:48;;;;;;;;;;;15.80;81.30;;;;;;5071859;28;19920;-36
2023/05/07 04:04:14;;;;;;;;;;;15.80;81.40;;;;;;5071619;28;19935;-37
2023/05/07 04:06:39;;;;;;;;;;;15.80;81.40;;;;;;5070369;28;19913;-36
2023/05/07 04:09:05;;;;;;;;;;;15.80;81.40;;;;;;5071469;28;19962;-35
2023/05/07 04:11:30;;;;;;;;;;;15.80;81.30;;;;;;5071708;28;20307;-36
2023/05/07 04:13:56;;;;;;;;;;;15.80;81.40;;;;;;5071495;28;19916;-36
2023/05/07 04:16:21;;;;;;;;;;;15.80;81.40;;;;;;5071513;28;20368;-35
2023/05/07 04:18:46;;;;;;;;;;;15.80;81.40;;;;;;5071500;28;19935;-42
2023/05/07 04:21:19;;;;;;;;;;;15.80;81.30;;;;;;5071377;28;20018;-36
2023/05/07 04:23:46;;;;;;;;;;;15.80;81.40;;;;;;5071205;28;19920;-35
2023/05/07 04:26:11;;;;;;;;;;;15.80;81.40;;;;;;5071208;28;20008;-35
2023/05/07 04:28:37;;;;;;;;;;;15.80;81.30;;;;;;5071430;28;20004;-38
2023/05/07 04:31:03;;;;;;;;;;;15.80;81.30;;;;;;5071484;28;19965;-36
2023/05/07 04:33:29;;;;;;;;;;;15.80;81.30;;;;;;5071493;28;19920;-36
2023/05/07 04:35:54;;;;;;;;;;;15.80;81.30;;;;;;5071444;28;19934;-36
2023/05/07 04:38:20;;;;;;;;;;;15.80;81.30;;;;;;5071575;28;19916;-36
2023/05/07 04:40:46;;;;;;;;;;;15.80;81.30;;;;;;5071965;28;19918;-36
2023/05/07 04:43:13;;;;;;;;;;;15.80;81.30;;;;;;5071558;28;20356;-36
2023/05/07 04:45:41;;;;;;;;;;;15.80;81.40;;;;;;5071829;28;19916;-37
2023/05/07 04:48:07;;;;;;;;;;;15.80;81.40;;;;;;5071474;28;20364;-35
2023/05/07 04:50:32;;;;;;;;;;;15.90;81.50;;;;;;5071209;28;20007;-36
2023/05/07 04:52:58;;;;;;;;;;;15.80;81.40;;;;;;5071203;28;19955;-38
2023/05/07 04:55:23;;;;;;;;;;;15.90;81.50;;;;;;5071086;28;20011;-36
2023/05/07 04:57:49;;;;;;;;;;;15.80;81.50;;;;;;5071148;28;19909;-37
2023/05/07 05:00:15;;;;;;;;;;;15.80;81.50;;;;;;5070951;28;20350;-39
2023/05/07 05:02:40;;;;;;;;;;;15.90;81.50;;;;;;5071168;28;19939;-35
2023/05/07 05:05:07;;;;;;;;;;;15.90;81.50;;;;;;5071160;28;19916;-37
2023/05/07 05:07:32;;;;;;;;;;;15.90;81.40;;;;;;5071729;28;19920;-36
2023/05/07 05:09:58;;;;;;;;;;;15.90;81.40;;;;;;5074863;28;20352;-37
2023/05/07 05:12:23;;;;;;;;;;;15.90;81.40;;;;;;5074705;28;19916;-36
2023/05/07 05:14:49;;;;;;;;;;;15.90;81.40;;;;;;5074426;28;19913;-37
2023/05/07 05:17:14;;;;;;;;;;;15.90;81.50;;;;;;5074588;28;19908;-34
2023/05/07 05:19:40;;;;;;;;;;;15.90;81.50;;;;;;5074374;28;20065;-38
2023/05/07 05:22:05;;;;;;;;;;;15.90;81.50;;;;;;5074491;28;20413;-35
2023/05/07 05:24:31;;;;;;;;;;;15.90;81.50;;;;;;5074719;28;20334;-37
2023/05/07 05:26:56;;;;;;;;;;;16.00;81.50;;;;;;5074128;28;20326;-37
2023/05/07 05:29:24;;;;;;;;;;;16.00;81.50;;;;;;5073680;28;22484;-34
2023/05/07 05:31:49;;;;;;;;;;;16.00;81.50;;;;;;5074477;28;19948;-38
2023/05/07 05:34:15;;;;;;;;;;;16.00;81.40;;;;;;5074130;28;20019;-37
2023/05/07 05:36:40;;;;;;;;;;;16.00;81.40;;;;;;5074286;28;19912;-37
2023/05/07 05:39:06;;;;;;;;;;;16.00;81.40;;;;;;5073785;28;19931;-36
2023/05/07 05:41:31;;;;;;;;;;;16.00;81.40;;;;;;5074215;28;19912;-34
2023/05/07 05:43:57;;;;;;;;;;;16.00;81.50;;;;;;5074156;28;19916;-37
2023/05/07 05:46:22;;;;;;;;;;;16.00;81.50;;;;;;5074081;28;19943;-37
2023/05/07 05:48:48;;;;;;;;;;;16.00;81.50;;;;;;5074094;28;19977;-37
2023/05/07 05:51:13;;;;;;;;;;;16.00;81.50;;;;;;5074084;28;19913;-37
2023/05/07 05:53:38;;;;;;;;;;;16.00;81.50;;;;;;5074005;28;20333;-37
2023/05/07 05:56:04;;;;;;;;;;;16.00;81.50;;;;;;5073892;28;19912;-37
2023/05/07 05:58:30;;;;;;;;;;;16.00;81.50;;;;;;5073969;28;20365;-38
2023/05/07 06:00:56;;;;;;;;;;;16.00;81.50;;;;;;5073813;28;19946;-37
2023/05/07 06:03:21;;;;;;;;;;;16.00;81.60;;;;;;5073965;28;19962;-37
2023/05/07 06:05:47;;;;;;;;;;;16.00;81.50;;;;;;5072558;28;20287;-37
2023/05/07 06:08:13;;;;;;;;;;;16.00;81.50;;;;;;5073785;28;19938;-35
2023/05/07 06:10:38;;;;;;;;;;;16.10;81.50;;;;;;5073322;28;19912;-37
2023/05/07 06:13:04;;;;;;;;;;;16.10;81.70;;;;;;5073329;28;19942;-38
2023/05/07 06:15:29;;;;;;;;;;;16.00;81.60;;;;;;5073415;28;20264;-38
2023/05/07 06:17:57;;;;;;;;;;;16.00;81.60;;;;;;5073574;28;20418;-37
2023/05/07 06:20:22;;;;;;;;;;;16.00;81.70;;;;;;5072424;28;20360;-36
2023/05/07 06:22:48;;;;;;;;;;;16.00;81.70;;;;;;5073328;28;19919;-37
2023/05/07 06:25:14;;;;;;;;;;;16.10;81.80;;;;;;5073335;28;19913;-36
2023/05/07 06:27:39;;;;;;;;;;;16.10;81.60;;;;;;5071822;28;19995;-39
2023/05/07 06:30:05;;;;;;;;;;;16.10;81.60;;;;;;5073244;28;19913;-36
2023/05/07 06:32:31;;;;;;;;;;;16.20;81.70;;;;;;5073249;28;19946;-36
2023/05/07 06:34:56;;;;;;;;;;;16.20;81.60;;;;;;5072936;28;20376;-36
2023/05/07 06:37:22;;;;;;;;;;;16.30;81.60;;;;;;5073523;28;19995;-35
2023/05/07 06:39:47;;;;;;;;;;;16.30;81.60;;;;;;5072962;28;19923;-37
2023/05/07 06:42:13;;;;;;;;;;;16.40;81.50;;;;;;5073094;28;19928;-39
2023/05/07 06:44:38;;;;;;;;;;;16.40;81.40;;;;;;5072906;28;19962;-37
2023/05/07 06:47:05;;;;;;;;;;;16.50;81.30;;;;;;5073323;28;19912;-38
2023/05/07 06:49:31;;;;;;;;;;;16.60;81.20;;;;;;5072711;28;19921;-38
2023/05/07 06:51:57;;;;;;;;;;;16.60;81.40;;;;;;5072627;28;20269;-37
2023/05/07 06:54:22;;;;;;;;;;;16.60;81.10;;;;;;5072879;28;19924;-38
2023/05/07 06:56:48;;;;;;;;;;;16.70;81.20;;;;;;5072629;28;19917;-37
2023/05/07 06:59:13;;;;;;;;;;;16.70;81.10;;;;;;5072553;28;19959;-38
2023/05/07 07:01:39;;;;;;;;;;;16.70;81.10;;;;;;5072432;28;19914;-38
2023/05/07 07:04:04;;;;;;;;;;;16.80;81.10;;;;;;5072259;28;19913;-37
2023/05/07 07:06:31;;;;;;;;;;;16.80;81.00;;;;;;5072408;28;19924;-38
2023/05/07 07:08:57;;;;;;;;;;;16.80;81.00;;;;;;5072302;28;19943;-37
2023/05/07 07:11:23;;;;;;;;;;;16.90;80.90;;;;;;5072359;28;19916;-38
2023/05/07 07:13:48;;;;;;;;;;;16.90;81.60;;;;;;5072316;28;19982;-37
2023/05/07 07:16:14;;;;;;;;;;;16.90;80.80;;;;;;5072045;28;19918;-37
2023/05/07 07:18:39;;;;;;;;;;;17.00;80.80;;;;;;5070897;28;19913;-38
2023/05/07 07:21:05;;;;;;;;;;;17.00;80.80;;;;;;5072371;28;19913;-36
2023/05/07 07:23:30;;;;;;;;;;;17.00;80.80;;;;;;5072435;28;19912;-38
2023/05/07 07:25:56;;;;;;;;;;;17.00;80.80;;;;;;5072163;28;19943;-34
2023/05/07 07:28:22;;;;;;;;;;;17.10;80.80;;;;;;5072064;28;19970;-37
2023/05/07 07:30:47;;;;;;;;;;;17.10;80.70;;;;;;5071821;28;19913;-38
2023/05/07 07:33:12;;;;;;;;;;;17.20;80.60;;;;;;5071924;28;19964;-37
2023/05/07 07:35:38;;;;;;;;;;;17.30;80.60;;;;;;5072000;28;19927;-38
2023/05/07 07:38:03;;;;;;;;;;;17.30;80.50;;;;;;5072087;28;19919;-37
2023/05/07 07:40:29;;;;;;;;;;;17.40;80.40;;;;;;5071845;28;19920;-39
2023/05/07 07:42:55;;;;;;;;;;;17.40;80.20;;;;;;5071888;28;19940;-37
2023/05/07 07:45:20;;;;;;;;;;;17.40;80.20;;;;;;5071903;28;19912;-37
2023/05/07 07:47:46;;;;;;;;;;;17.50;80.20;;;;;;5072379;28;19919;-38
2023/05/07 07:50:11;;;;;;;;;;;17.50;80.20;;;;;;5072016;28;19938;-37
2023/05/07 07:52:37;;;;;;;;;;;17.50;80.10;;;;;;5071683;28;20391;-38
2023/05/07 07:55:03;;;;;;;;;;;17.50;80.10;;;;;;5071791;28;20028;-38
2023/05/07 07:57:28;;;;;;;;;;;17.60;80.00;;;;;;5071753;28;19948;-38
2023/05/07 07:59:54;;;;;;;;;;;17.60;79.90;;;;;;5070524;28;19962;-38
2023/05/07 08:02:19;;;;;;;;;;;17.70;79.90;;;;;;5071720;28;19959;-38
2023/05/07 08:04:45;;;;;;;;;;;17.80;79.80;;;;;;5071670;28;19912;-37
2023/05/07 08:07:10;;;;;;;;;;;17.80;79.70;;;;;;5071809;28;19959;-39
2023/05/07 08:09:39;;;;;;;;;;;17.90;79.70;;;;;;5071425;28;20261;-49
2023/05/07 08:12:05;;;;;;;;;;;17.90;79.60;;;;;;5071624;28;19946;-40
2023/05/07 08:14:31;;;;;;;;;;;18.00;79.60;;;;;;5070087;28;19916;-38
2023/05/07 08:16:56;;;;;;;;;;;18.00;79.60;;;;;;5072094;28;19912;-36
2023/05/07 08:19:22;;;;;;;;;;;18.10;79.50;;;;;;5070287;28;20256;-39
2023/05/07 08:21:47;;;;;;;;;;;18.20;79.50;;;;;;5071324;28;19924;-38
2023/05/07 08:24:14;;;;;;;;;;;18.30;79.50;;;;;;5071469;28;19966;-40
2023/05/07 08:26:39;;;;;;;;;;;18.30;79.40;;;;;;5071265;28;19921;-37
2023/05/07 08:29:05;;;;;;;;;;;18.30;79.30;;;;;;5071537;28;19913;-38
2023/05/07 08:31:30;;;;;;;;;;;18.40;79.20;;;;;;5071363;28;20372;-39
2023/05/07 08:33:57;;;;;;;;;;;18.40;79.10;;;;;;5071530;28;20359;-37
2023/05/07 08:36:22;;;;;;;;;;;18.40;79.10;;;;;;5071497;28;20194;-38
2023/05/07 08:38:49;;;;;;;;;;;18.50;79.10;;;;;;5071466;28;19912;-37
2023/05/07 08:41:14;;;;;;;;;;;18.40;78.90;;;;;;5071679;28;19917;-39
2023/05/07 08:43:40;;;;;;;;;;;18.40;78.80;;;;;;5073886;28;20277;-39
2023/05/07 08:46:08;;;;;;;;;;;18.40;78.90;;;;;;5074993;28;19916;-38
2023/05/07 08:48:34;;;;;;;;;;;18.40;78.80;;;;;;5075084;28;20386;-38
2023/05/07 08:50:59;;;;;;;;;;;18.50;78.80;;;;;;5075197;28;19913;-39
2023/05/07 08:53:25;;;;;;;;;;;18.60;78.70;;;;;;5075059;28;20376;-37
2023/05/07 08:55:51;;;;;;;;;;;18.60;78.60;;;;;;5075141;28;19958;-37
2023/05/07 08:58:16;;;;;;;;;;;18.70;78.60;;;;;;5074896;28;19944;-37
2023/05/07 09:00:42;;;;;;;;;;;18.80;78.60;;;;;;5075177;28;19912;-37
2023/05/07 09:03:07;;;;;;;;;;;18.80;78.30;;;;;;5074558;28;19913;-38
2023/05/07 09:05:33;;;;;;;;;;;18.80;78.30;;;;;;5074887;28;19912;-38
2023/05/07 09:07:59;;;;;;;;;;;18.90;78.20;;;;;;5074597;28;19970;-37
2023/05/07 09:10:25;;;;;;;;;;;18.90;78.10;;;;;;5073658;28;19913;-39
2023/05/07 09:12:51;;;;;;;;;;;19.00;78.00;;;;;;5075293;28;19913;-46
2023/05/07 09:15:16;;;;;;;;;;;19.00;77.90;;;;;;5074786;28;19916;-39
2023/05/07 09:17:43;;;;;;;;;;;19.10;77.90;;;;;;5074827;28;20403;-38
2023/05/07 09:20:09;;;;;;;;;;;19.10;77.80;;;;;;5074778;28;19999;-40
2023/05/07 09:22:37;;;;;;;;;;;19.20;77.80;;;;;;5074578;28;20008;-39
2023/05/07 09:25:03;;;;;;;;;;;19.30;77.80;;;;;;5074812;28;19924;-40
2023/05/07 09:27:30;;;;;;;;;;;19.40;77.70;;;;;;5074235;28;19921;-41
2023/05/07 09:29:55;;;;;;;;;;;19.50;77.60;;;;;;5074701;28;19948;-39
2023/05/07 09:32:21;;;;;;;;;;;19.60;77.40;;;;;;5074756;28;19948;-41
2023/05/07 09:34:47;;;;;;;;;;;19.70;77.20;;;;;;5074622;28;19917;-39
2023/05/07 09:37:13;;;;;;;;;;;19.80;77.00;;;;;;5074504;28;19912;-39
2023/05/07 09:39:39;;;;;;;;;;;19.90;77.00;;;;;;5074563;28;19913;-37
2023/05/07 09:42:05;;;;;;;;;;;19.90;76.90;;;;;;5074362;28;19966;-38
2023/05/07 09:44:31;;;;;;;;;;;19.90;76.60;;;;;;5074559;28;19916;-38
2023/05/07 09:46:59;;;;;;;;;;;20.00;76.50;;;;;;5074435;28;19912;-38
2023/05/07 09:49:27;;;;;;;;;;;20.00;76.50;;;;;;5072942;28;19913;-38
2023/05/07 09:51:53;;;;;;;;;;;20.10;76.30;;;;;;5074080;28;19953;-37
2023/05/07 09:54:19;;;;;;;;;;;20.20;76.30;;;;;;5073903;28;20388;-38
2023/05/07 09:56:44;;;;;;;;;;;20.30;76.20;;;;;;5073995;28;20342;-40
2023/05/07 09:59:12;;;;;;;;;;;20.40;76.10;;;;;;5073993;28;19912;-38
2023/05/07 10:01:38;;;;;;;;;;;20.50;75.90;;;;;;5073937;28;19913;-36
2023/05/07 10:04:04;;;;;;;;;;;20.60;75.70;;;;;;5073857;28;19927;-37
2023/05/07 10:06:30;;;;;;;;;;;20.70;75.60;;;;;;5074175;28;19947;-39
2023/05/07 10:08:56;;;;;;;;;;;20.70;75.40;;;;;;5073887;28;19948;-40
2023/05/07 10:11:22;;;;;;;;;;;20.80;75.20;;;;;;5074004;28;19927;-39
2023/05/07 10:13:47;;;;;;;;;;;20.80;75.10;;;;;;5074241;28;19920;-39
2023/05/07 10:16:13;;;;;;;;;;;20.80;74.80;;;;;;5073888;28;20432;-38
2023/05/07 10:18:40;;;;;;;;;;;20.80;74.90;;;;;;5073763;28;19961;-40
2023/05/07 10:21:11;;;;;;;;;;;20.90;74.90;;;;;;5073715;28;20332;-39
2023/05/07 10:23:38;;;;;;;;;;;21.00;74.80;;;;;;5073672;28;20399;-34
2023/05/07 10:26:05;;;;;;;;;;;21.10;74.40;;;;;;5073409;28;19986;-37
2023/05/07 10:28:32;;;;;;;;;;;21.20;74.30;;;;;;5074111;28;19912;-39
2023/05/07 10:31:00;;;;;;;;;;;21.20;74.30;;;;;;5073527;28;19935;-37
2023/05/07 10:33:28;;;;;;;;;;;21.30;74.10;;;;;;5073640;28;20433;-38
2023/05/07 10:35:57;;;;;;;;;;;21.40;74.00;;;;;;5073595;28;20344;-36
2023/05/07 10:38:23;;;;;;;;;;;21.50;73.90;;;;;;5073325;28;19913;-39
2023/05/07 10:40:50;;;;;;;;;;;21.70;73.30;;;;;;5073409;28;19913;-38
2023/05/07 10:43:15;;;;;;;;;;;21.70;73.30;;;;;;5073266;28;20372;-38
2023/05/07 10:45:41;;;;;;;;;;;21.80;72.60;;;;;;5073214;28;19999;-40
2023/05/07 10:48:13;;;;;;;;;;;21.80;72.80;;;;;;5072983;28;19956;-38
2023/05/07 10:50:47;;;;;;;;;;;21.90;72.70;;;;;;5072139;28;19917;-39
2023/05/07 10:53:19;;;;;;;;;;;21.90;71.90;;;;;;5072952;28;19978;-38
2023/05/07 10:55:48;;;;;;;;;;;21.90;72.10;;;;;;5072448;28;19973;-36
2023/05/07 10:58:27;;;;;;;;;;;21.90;72.10;;;;;;5072978;28;20388;-38
2023/05/07 11:00:56;;;;;;;;;;;21.90;72.10;;;;;;5073500;28;19912;-40
2023/05/07 11:03:22;;;;;;;;;;;21.90;71.90;;;;;;5073081;28;20380;-40
2023/05/07 11:06:04;;;;;;;;;;;22.00;71.90;;;;;;5072456;28;19920;-40
2023/05/07 11:08:48;;;;;;;;;;;22.00;71.80;;;;;;5072407;28;20389;-39
2023/05/07 11:11:14;;;;;;;;;;;22.10;71.40;;;;;;5072764;28;19919;-38
2023/05/07 11:13:44;;;;;;;;;;;22.20;70.50;;;;;;5072691;28;19916;-40
2023/05/07 11:16:26;;;;;;;;;;;22.30;70.10;;;;;;5072761;28;19939;-39
2023/05/07 11:18:52;;;;;;;;;;;22.30;69.60;;;;;;5072730;28;20343;-44
2023/05/07 11:21:34;;;;;;;;;;;22.30;69.60;;;;;;5072648;28;20337;-37
2023/05/07 11:24:00;;;;;;;;;;;22.30;69.50;;;;;;5072700;28;20330;-40
2023/05/07 11:26:25;;;;;;;;;;;22.30;69.60;;;;;;5072555;28;19920;-37
2023/05/07 11:28:51;;;;;;;;;;;22.30;69.40;;;;;;5073069;28;19966;-39
2023/05/07 11:31:20;;;;;;;;;;;22.40;69.60;;;;;;5072597;28;19919;-37
2023/05/07 11:33:46;;;;;;;;;;;22.40;69.30;;;;;;5072670;28;20336;-39
2023/05/07 11:36:12;;;;;;;;;;;22.50;69.50;;;;;;5072407;28;19912;-41
2023/05/07 11:38:38;;;;;;;;;;;22.50;69.50;;;;;;5072337;28;19920;-38
2023/05/07 11:41:05;;;;;;;;;;;22.60;69.20;;;;;;5072310;28;19922;-38
2023/05/07 11:43:30;;;;;;;;;;;22.70;69.30;;;;;;5072217;28;19920;-39
2023/05/07 11:46:04;;;;;;;;;;;22.80;69.00;;;;;;5072300;28;20403;-39
2023/05/07 11:48:30;;;;;;;;;;;22.80;69.00;;;;;;5072559;28;19912;-40
2023/05/07 11:50:58;;;;;;;;;;;22.90;68.70;;;;;;5072196;28;19913;-38
2023/05/07 11:53:24;;;;;;;;;;;22.90;68.40;;;;;;5072095;28;19913;-38
2023/05/07 11:55:52;;;;;;;;;;;22.80;68.60;;;;;;5072052;28;19913;-39
2023/05/07 11:58:20;;;;;;;;;;;22.90;68.40;;;;;;5072002;28;19913;-37
2023/05/07 12:00:49;;;;;;;;;;;23.00;68.60;;;;;;5071799;28;19924;-38
2023/05/07 12:03:15;;;;;;;;;;;23.00;68.40;;;;;;5072172;28;20390;-38
2023/05/07 12:05:41;;;;;;;;;;;23.10;68.40;;;;;;5071914;28;20007;-38
2023/05/07 12:08:07;;;;;;;;;;;23.10;68.20;;;;;;5071940;28;19912;-38
2023/05/07 12:10:33;;;;;;;;;;;23.10;68.20;;;;;;5071818;28;19920;-40
2023/05/07 12:12:58;;;;;;;;;;;23.10;68.00;;;;;;5071667;28;19954;-39
2023/05/07 12:15:23;;;;;;;;;;;23.00;68.10;;;;;;5070536;28;20011;-38
2023/05/07 12:17:50;;;;;;;;;;;23.10;68.00;;;;;;5073005;28;19913;-38
2023/05/07 12:20:16;;;;;;;;;;;23.10;67.70;;;;;;5074709;28;19919;-41
2023/05/07 12:22:42;;;;;;;;;;;23.10;67.50;;;;;;5075970;28;19951;-39
2023/05/07 12:25:08;;;;;;;;;;;23.10;67.70;;;;;;5075668;28;19912;-38
2023/05/07 12:27:36;;;;;;;;;;;23.10;67.20;;;;;;5075493;28;20351;-39
2023/05/07 12:30:01;;;;;;;;;;;23.00;67.40;;;;;;5075682;28;19939;-39
2023/05/07 12:32:28;;;;;;;;;;;23.00;67.60;;;;;;5075516;28;20390;-40
2023/05/07 12:34:53;;;;;;;;;;;23.00;67.60;;;;;;5075840;28;19924;-39
2023/05/07 12:37:25;;;;;;;;;;;23.00;67.70;;;;;;5075565;28;19919;-38
2023/05/07 12:40:07;;;;;;;;;;;23.00;67.70;;;;;;5075524;28;19919;-41
2023/05/07 12:42:34;;;;;;;;;;;23.10;67.60;;;;;;5075259;28;19926;-39
2023/05/07 12:45:06;;;;;;;;;;;23.20;67.70;;;;;;5075305;28;20236;-39
2023/05/07 12:47:33;;;;;;;;;;;23.30;67.60;;;;;;5073870;28;20314;-39
2023/05/07 12:49:59;;;;;;;;;;;23.30;67.60;;;;;;5075708;28;19913;-38
2023/05/07 12:52:25;;;;;;;;;;;23.30;67.60;;;;;;5075507;28;20006;-38
2023/05/07 12:54:50;;;;;;;;;;;23.30;67.70;;;;;;5075449;28;20432;-39
2023/05/07 12:57:18;;;;;;;;;;;23.30;67.70;;;;;;5075164;28;20002;-46
2023/05/07 12:59:44;;;;;;;;;;;23.30;67.70;;;;;;5075614;28;20431;-38
2023/05/07 13:02:09;;;;;;;;;;;23.30;67.70;;;;;;5074833;28;19963;-38
2023/05/07 13:04:35;;;;;;;;;;;23.30;67.80;;;;;;5074921;28;19913;-39
2023/05/07 13:07:01;;;;;;;;;;;23.30;67.90;;;;;;5075035;28;19956;-39
2023/05/07 13:09:28;;;;;;;;;;;23.30;67.90;;;;;;5074942;28;19920;-39
2023/05/07 13:11:54;;;;;;;;;;;23.30;67.90;;;;;;5075332;28;20333;-37
2023/05/07 13:14:20;;;;;;;;;;;23.30;67.70;;;;;;5074863;28;20022;-37
2023/05/07 13:16:49;;;;;;;;;;;23.30;67.70;;;;;;5074946;28;19916;-39
2023/05/07 13:19:14;;;;;;;;;;;23.30;67.70;;;;;;5074780;28;19962;-38
2023/05/07 13:21:40;;;;;;;;;;;23.30;67.70;;;;;;5075029;28;19920;-39
2023/05/07 13:24:05;;;;;;;;;;;23.30;67.80;;;;;;5074785;28;19920;-38
2023/05/07 13:26:31;;;;;;;;;;;23.30;67.80;;;;;;5074519;28;20012;-40
2023/05/07 13:28:56;;;;;;;;;;;23.30;67.70;;;;;;5074140;28;19948;-38
2023/05/07 13:31:22;;;;;;;;;;;23.30;67.60;;;;;;5074718;28;20279;-39
2023/05/07 13:33:48;;;;;;;;;;;23.30;67.70;;;;;;5074292;28;19916;-40
2023/05/07 13:36:13;;;;;;;;;;;23.30;67.70;;;;;;5075055;28;19917;-42
2023/05/07 13:38:39;;;;;;;;;;;23.30;67.80;;;;;;5074366;28;19912;-39
2023/05/07 13:41:04;;;;;;;;;;;23.30;67.80;;;;;;5074648;28;19955;-39
2023/05/07 13:43:31;;;;;;;;;;;23.30;67.70;;;;;;5074333;28;19912;-40
2023/05/07 13:45:57;;;;;;;;;;;23.30;67.40;;;;;;5074549;28;19919;-40
2023/05/07 13:48:22;;;;;;;;;;;23.30;67.60;;;;;;5074652;28;19917;-40
2023/05/07 13:50:48;;;;;;;;;;;23.30;67.50;;;;;;5074318;28;20224;-40
2023/05/07 13:53:15;;;;;;;;;;;23.30;67.30;;;;;;5074269;28;19923;-40
2023/05/07 13:55:40;;;;;;;;;;;23.30;67.50;;;;;;5074170;28;19923;-41
2023/05/07 13:58:06;;;;;;;;;;;23.30;66.90;;;;;;5074435;28;19913;-39
2023/05/07 14:00:31;;;;;;;;;;;23.20;67.20;;;;;;5074120;28;19916;-40
2023/05/07 14:02:57;;;;;;;;;;;23.20;66.90;;;;;;5074097;28;19958;-40
2023/05/07 14:05:23;;;;;;;;;;;23.30;67.00;;;;;;5072651;28;20426;-39
2023/05/07 14:07:51;;;;;;;;;;;23.30;66.90;;;;;;5073941;28;19952;-39
2023/05/07 14:10:17;;;;;;;;;;;23.40;66.50;;;;;;5073964;28;20399;-40